createdAt,value
2022-12-23T00:01:39.249Z,5.65
2022-12-23T00:04:08.179Z,6.95
2022-12-23T00:06:36.548Z,5.75
2022-12-23T00:09:05.267Z,6.67
2022-12-23T00:11:33.753Z,5.97
2022-12-23T00:14:21.891Z,5.67
2022-12-23T00:16:52.473Z,5.67
2022-12-23T00:19:21.277Z,6.73
2022-12-23T00:21:49.701Z,6.20
2022-12-23T00:24:18.639Z,6.57
2022-12-23T00:26:47.091Z,5.47
2022-12-23T00:29:15.852Z,6.17
2022-12-23T00:31:44.211Z,6.07
2022-12-23T00:34:14.436Z,6.83
2022-12-23T00:36:42.855Z,5.53
2022-12-23T00:39:34.485Z,6.60
2022-12-23T00:42:20.107Z,5.47
2022-12-23T00:44:48.794Z,5.80
2022-12-23T00:47:30.991Z,5.97
2022-12-23T00:50:01.218Z,6.47
2022-12-23T00:52:29.553Z,5.77
2022-12-23T00:54:58.433Z,5.70
2022-12-23T00:57:28.094Z,6.50
2022-12-23T00:59:56.801Z,6.07
2022-12-23T01:02:42.576Z,6.50
2022-12-23T01:05:30.551Z,6.15
2022-12-23T01:07:58.824Z,6.10
2022-12-23T01:10:27.583Z,6.40
2022-12-23T01:12:56.009Z,6.27
2022-12-23T01:15:25.420Z,6.53
2022-12-23T01:17:54.084Z,6.20
2022-12-23T01:20:24.391Z,6.40
2022-12-23T01:22:52.738Z,6.25
2022-12-23T01:25:21.645Z,5.63
2022-12-23T01:27:50.169Z,6.83
2022-12-23T01:30:19.174Z,5.60
2022-12-23T01:32:47.641Z,6.10
2022-12-23T01:35:16.508Z,6.53
2022-12-23T01:37:46.353Z,7.13
2022-12-23T01:40:15.238Z,6.97
2022-12-23T01:42:45.356Z,6.63
2022-12-23T01:45:19.082Z,7.07
2022-12-23T01:47:51.653Z,6.17
2022-12-23T01:50:23.964Z,6.37
2022-12-23T01:53:08.212Z,6.30
2022-12-23T01:55:41.547Z,6.40
2022-12-23T01:58:14.218Z,6.07
2022-12-23T02:01:01.397Z,5.83
2022-12-23T02:03:45.417Z,6.37
2022-12-23T02:06:39.469Z,6.67
2022-12-23T02:09:22.059Z,6.00
2022-12-23T02:12:11.730Z,5.03
2022-12-23T02:15:20.758Z,6.67
2022-12-23T02:18:00.110Z,5.37
2022-12-23T02:21:02.884Z,5.80
2022-12-23T02:24:00.702Z,7.00
2022-12-23T02:26:52.426Z,6.10
2022-12-23T02:29:59.083Z,5.83
2022-12-23T02:32:35.654Z,5.47
2022-12-23T02:35:13.676Z,6.20
2022-12-23T02:37:48.489Z,5.10
2022-12-23T02:40:27.463Z,5.93
2022-12-23T02:43:03.267Z,6.27
2022-12-23T02:45:37.769Z,6.43
2022-12-23T02:48:13.970Z,5.37
2022-12-23T02:50:45.995Z,5.47
2022-12-23T02:53:20.659Z,5.27
2022-12-23T02:55:51.672Z,6.17
2022-12-23T02:58:24.903Z,5.07
2022-12-23T03:00:54.429Z,5.23
2022-12-23T03:03:25.368Z,5.67
2022-12-23T03:05:56.174Z,5.33
2022-12-23T03:08:29.696Z,6.73
2022-12-23T03:11:05.940Z,5.73
2022-12-23T03:13:44.961Z,6.43
2022-12-23T03:16:21.993Z,5.70
2022-12-23T03:19:05.167Z,6.27
2022-12-23T03:21:39.790Z,6.13
2022-12-23T03:24:18.044Z,5.93
2022-12-23T03:26:54.712Z,6.03
2022-12-23T03:29:28.605Z,5.20
2022-12-23T03:32:01.171Z,5.20
2022-12-23T03:34:35.612Z,6.33
2022-12-23T03:37:09.202Z,5.03
2022-12-23T03:39:44.422Z,5.43
2022-12-23T03:42:20.412Z,6.07
2022-12-23T03:45:28.025Z,6.13
2022-12-23T03:47:45.945Z,5.90
2022-12-23T03:50:18.701Z,5.83
2022-12-23T03:52:54.136Z,5.97
2022-12-23T03:55:27.426Z,5.40
2022-12-23T03:58:03.412Z,6.17
2022-12-23T04:00:37.497Z,4.67
2022-12-23T04:03:17.653Z,6.43
2022-12-23T04:05:53.637Z,6.77
2022-12-23T04:08:28.483Z,5.60
2022-12-23T04:10:57.738Z,5.67
2022-12-23T04:13:28.208Z,4.37
2022-12-23T04:15:59.520Z,5.90
2022-12-23T04:18:29.235Z,6.30
2022-12-23T04:20:59.173Z,5.40
2022-12-23T04:23:27.865Z,6.00
2022-12-23T04:25:56.625Z,5.20
2022-12-23T04:28:25.508Z,5.37
2022-12-23T04:30:54.311Z,6.17
2022-12-23T04:33:23.127Z,5.17
2022-12-23T04:35:51.996Z,4.47
2022-12-23T04:38:22.130Z,5.93
2022-12-23T04:40:50.575Z,6.00
2022-12-23T04:43:19.566Z,6.30
2022-12-23T04:45:52.458Z,6.23
2022-12-23T04:48:21.652Z,6.00
2022-12-23T04:50:50.165Z,6.07
2022-12-23T04:53:18.920Z,5.53
2022-12-23T04:55:53.036Z,6.47
2022-12-23T04:58:24.209Z,5.80
2022-12-23T05:01:02.481Z,6.97
2022-12-23T05:03:32.166Z,6.00
2022-12-23T05:06:00.720Z,6.60
2022-12-23T05:08:29.701Z,7.13
2022-12-23T05:10:59.633Z,5.83
2022-12-23T05:13:28.696Z,6.33
2022-12-23T05:15:57.343Z,6.10
2022-12-23T05:18:26.674Z,6.67
2022-12-23T05:20:55.601Z,6.50
2022-12-23T05:23:24.387Z,6.87
2022-12-23T05:25:53.950Z,6.13
2022-12-23T05:28:24.644Z,6.30
2022-12-23T05:30:59.556Z,7.13
2022-12-23T05:33:29.511Z,6.70
2022-12-23T05:35:58.729Z,7.30
2022-12-23T05:38:27.878Z,7.37
2022-12-23T05:40:56.370Z,6.37
2022-12-23T05:43:26.474Z,6.70
2022-12-23T05:45:55.092Z,7.30
2022-12-23T05:48:23.830Z,7.60
2022-12-23T05:50:53.225Z,7.37
2022-12-23T05:53:23.972Z,7.03
2022-12-23T05:55:53.015Z,8.33
2022-12-23T05:58:21.836Z,6.87
2022-12-23T06:00:51.646Z,8.03
2022-12-23T06:03:20.447Z,7.90
2022-12-23T06:05:51.974Z,8.53
2022-12-23T06:08:21.021Z,7.40
2022-12-23T06:10:49.990Z,7.97
2022-12-23T06:13:18.820Z,7.83
2022-12-23T06:15:48.491Z,8.10
2022-12-23T06:18:18.833Z,9.17
2022-12-23T06:20:47.756Z,8.40
2022-12-23T06:23:16.701Z,10.43
2022-12-23T06:25:45.208Z,7.97
2022-12-23T06:28:13.959Z,9.40
2022-12-23T06:30:42.716Z,8.93
2022-12-23T06:33:11.389Z,8.43
2022-12-23T06:35:41.179Z,9.07
2022-12-23T06:38:12.278Z,11.87
2022-12-23T06:40:41.317Z,11.27
2022-12-23T06:43:13.563Z,10.57
2022-12-23T06:45:42.353Z,10.70
2022-12-23T06:48:11.287Z,9.47
2022-12-23T06:50:41.471Z,9.33
2022-12-23T06:53:11.039Z,11.37
2022-12-23T06:55:39.629Z,12.50
2022-12-23T06:58:08.897Z,10.33
2022-12-23T07:00:38.178Z,12.60
2022-12-23T07:03:07.210Z,9.40
2022-12-23T07:05:37.917Z,11.27
2022-12-23T07:08:08.440Z,12.60
2022-12-23T07:10:36.991Z,11.03
2022-12-23T07:13:06.150Z,12.07
2022-12-23T07:15:36.627Z,11.77
2022-12-23T07:18:06.335Z,11.93
2022-12-23T07:20:34.985Z,13.33
2022-12-23T07:23:04.648Z,11.93
2022-12-23T07:25:34.440Z,11.47
2022-12-23T07:28:04.166Z,12.60
2022-12-23T07:30:33.008Z,12.20
2022-12-23T07:33:02.054Z,11.83
2022-12-23T07:35:31.194Z,12.23
2022-12-23T07:38:00.457Z,11.60
2022-12-23T07:40:29.331Z,11.30
2022-12-23T07:43:00.937Z,11.57
2022-12-23T07:45:30.666Z,11.53
2022-12-23T07:48:01.454Z,12.00
2022-12-23T07:50:30.762Z,11.67
2022-12-23T07:52:59.595Z,11.27
2022-12-23T07:55:28.207Z,11.47
2022-12-23T07:57:56.905Z,12.73
2022-12-23T08:00:26.849Z,12.23
2022-12-23T08:02:55.583Z,10.57
2022-12-23T08:05:24.553Z,13.23
2022-12-23T08:07:53.643Z,12.13
2022-12-23T08:10:22.657Z,12.50
2022-12-23T08:12:51.975Z,10.70
2022-12-23T08:15:21.056Z,13.70
2022-12-23T08:17:51.372Z,12.77
2022-12-23T08:20:20.052Z,12.13
2022-12-23T08:22:48.628Z,11.87
2022-12-23T08:25:17.028Z,11.67
2022-12-23T08:27:46.145Z,11.80
2022-12-23T08:30:15.360Z,11.13
2022-12-23T08:32:44.286Z,13.67
2022-12-23T08:35:14.190Z,12.70
2022-12-23T08:37:43.382Z,11.30
2022-12-23T08:40:13.171Z,10.13
2022-12-23T08:42:41.793Z,12.23
2022-12-23T08:45:10.948Z,10.97
2022-12-23T08:47:39.723Z,11.57
2022-12-23T08:50:09.011Z,12.57
2022-12-23T08:52:39.297Z,11.50
2022-12-23T08:55:08.153Z,11.53
2022-12-23T08:57:37.456Z,12.20
2022-12-23T09:00:06.851Z,10.97
2022-12-23T09:02:35.613Z,11.77
2022-12-23T09:05:04.568Z,11.73
2022-12-23T09:07:33.463Z,10.93
2022-12-23T09:10:03.683Z,10.43
2022-12-23T09:12:32.584Z,9.23
2022-12-23T09:15:01.055Z,9.77
2022-12-23T09:17:29.736Z,9.90
2022-12-23T09:19:58.605Z,10.60
2022-12-23T09:22:27.858Z,10.07
2022-12-23T09:25:01.376Z,10.67
2022-12-23T09:27:35.624Z,9.63
2022-12-23T09:30:04.505Z,9.43
2022-12-23T09:32:33.956Z,9.37
2022-12-23T09:35:02.505Z,9.87
2022-12-23T09:37:31.388Z,9.57
2022-12-23T09:40:00.123Z,8.70
2022-12-23T09:42:47.881Z,10.07
2022-12-23T09:45:27.402Z,9.73
2022-12-23T09:47:57.770Z,9.67
2022-12-23T09:50:30.029Z,8.27
2022-12-23T09:53:02.995Z,8.43
2022-12-23T09:55:41.167Z,8.23
2022-12-23T09:58:21.118Z,8.07
2022-12-23T10:01:09.367Z,8.57
2022-12-23T10:03:56.454Z,8.33
2022-12-23T10:06:28.402Z,9.53
2022-12-23T10:09:00.835Z,8.97
2022-12-23T10:11:33.239Z,8.83
2022-12-23T10:14:20.531Z,7.37
2022-12-23T10:16:53.041Z,8.43
2022-12-23T10:19:28.200Z,8.60
2022-12-23T10:22:02.048Z,7.90
2022-12-23T10:24:39.555Z,8.30
2022-12-23T10:27:24.222Z,8.50
2022-12-23T10:29:56.793Z,7.63
2022-12-23T10:32:34.224Z,8.43
2022-12-23T10:35:11.463Z,7.07
2022-12-23T10:37:45.777Z,8.90
2022-12-23T10:40:22.563Z,8.37
2022-12-23T10:43:03.366Z,9.30
2022-12-23T10:45:48.045Z,9.00
2022-12-23T10:48:26.793Z,8.57
2022-12-23T10:51:01.275Z,7.77
2022-12-23T10:53:37.001Z,9.33
2022-12-23T10:56:07.645Z,8.80
2022-12-23T10:58:39.450Z,8.23
2022-12-23T11:01:16.413Z,8.97
2022-12-23T11:04:00.625Z,10.00
2022-12-23T11:06:35.015Z,9.53
2022-12-23T11:09:06.461Z,10.13
2022-12-23T11:11:59.404Z,11.47
2022-12-23T11:14:33.733Z,11.50
2022-12-23T11:17:04.486Z,9.73
2022-12-23T11:19:32.995Z,7.60
2022-12-23T11:22:02.449Z,7.10
2022-12-23T11:24:35.413Z,9.53
2022-12-23T11:27:09.055Z,9.67
2022-12-23T11:29:40.056Z,8.97
2022-12-23T11:32:19.343Z,8.27
2022-12-23T11:34:49.222Z,9.13
2022-12-23T11:37:29.819Z,8.87
2022-12-23T11:39:58.260Z,9.13
2022-12-23T11:42:31.362Z,9.50
2022-12-23T11:45:01.624Z,9.03
2022-12-23T11:47:39.126Z,9.60
2022-12-23T11:50:30.452Z,9.10
2022-12-23T11:53:12.647Z,9.13
2022-12-23T11:55:48.098Z,8.93
2022-12-23T11:58:20.751Z,8.57
2022-12-23T12:00:56.492Z,8.53
2022-12-23T12:03:30.328Z,8.47
2022-12-23T12:06:01.241Z,9.33
2022-12-23T12:08:39.795Z,8.43
2022-12-23T12:11:15.299Z,8.33
2022-12-23T12:13:46.159Z,8.53
2022-12-23T12:16:36.456Z,7.43
2022-12-23T12:19:14.041Z,8.63
2022-12-23T12:21:42.749Z,8.23
2022-12-23T12:24:19.725Z,8.53
2022-12-23T12:26:52.429Z,7.53
2022-12-23T12:29:26.865Z,8.33
2022-12-23T12:31:58.907Z,7.40
2022-12-23T12:34:38.990Z,7.33
2022-12-23T12:37:14.575Z,9.27
2022-12-23T12:39:50.193Z,7.10
2022-12-23T12:42:26.574Z,6.73
2022-12-23T12:45:04.808Z,8.30
2022-12-23T12:47:54.185Z,7.60
2022-12-23T12:50:30.371Z,8.07
2022-12-23T12:53:05.065Z,7.17
2022-12-23T12:55:38.324Z,6.90
2022-12-23T12:58:23.444Z,7.63
2022-12-23T13:01:06.658Z,8.70
2022-12-23T13:04:05.473Z,8.70
2022-12-23T13:06:42.398Z,7.67
2022-12-23T13:09:20.252Z,7.53
2022-12-23T13:11:55.826Z,7.20
2022-12-23T13:14:34.819Z,8.50
2022-12-23T13:17:12.012Z,8.40
2022-12-23T13:19:49.723Z,8.90
2022-12-23T13:22:29.327Z,9.30
2022-12-23T13:25:11.164Z,9.10
2022-12-23T13:27:54.782Z,8.53
2022-12-23T13:30:25.683Z,8.33
2022-12-23T13:33:07.499Z,10.93
2022-12-23T13:35:43.562Z,8.20
2022-12-23T13:38:26.809Z,8.37
2022-12-23T13:41:03.781Z,10.23
2022-12-23T13:43:41.571Z,9.10
2022-12-23T13:46:20.730Z,9.07
2022-12-23T13:49:00.218Z,9.40
2022-12-23T13:51:38.732Z,9.50
2022-12-23T13:54:18.284Z,10.97
2022-12-23T13:56:51.196Z,9.50
2022-12-23T13:59:20.434Z,9.80
2022-12-23T14:01:52.659Z,11.07
2022-12-23T14:04:34.541Z,10.23
2022-12-23T14:07:09.227Z,9.47
2022-12-23T14:09:40.897Z,9.67
2022-12-23T14:12:21.897Z,10.47
2022-12-23T14:15:13.495Z,9.57
2022-12-23T14:17:53.233Z,9.60
2022-12-23T14:20:36.525Z,9.27
2022-12-23T14:23:20.072Z,9.87
2022-12-23T14:26:22.386Z,9.63
2022-12-23T14:29:26.749Z,8.40
2022-12-23T14:31:58.133Z,9.00
2022-12-23T14:34:30.762Z,10.37
2022-12-23T14:37:35.078Z,10.50
2022-12-23T14:40:41.324Z,9.33
2022-12-23T14:43:33.162Z,8.47
2022-12-23T14:46:04.919Z,9.63
2022-12-23T14:49:37.653Z,10.47
2022-12-23T14:52:44.670Z,9.70
2022-12-23T14:55:44.727Z,9.20
2022-12-23T14:58:49.717Z,8.70
2022-12-23T15:01:21.657Z,9.30
2022-12-23T15:03:57.587Z,9.60
2022-12-23T15:06:36.353Z,9.63
2022-12-23T15:09:07.578Z,8.97
2022-12-23T15:11:38.295Z,9.10
2022-12-23T15:14:13.221Z,10.20
2022-12-23T15:16:45.242Z,8.17
2022-12-23T15:19:25.004Z,9.13
2022-12-23T15:22:17.266Z,9.40
2022-12-23T15:24:48.233Z,9.40
2022-12-23T15:27:29.573Z,9.77
2022-12-23T15:29:59.492Z,9.37
2022-12-23T15:32:30.125Z,9.47
2022-12-23T15:35:04.365Z,9.57
2022-12-23T15:37:34.655Z,10.48
2022-12-23T15:40:12.081Z,10.63
2022-12-23T15:42:48.763Z,9.27
2022-12-23T15:45:33.288Z,9.33
2022-12-23T15:48:03.038Z,10.03
2022-12-23T15:50:32.296Z,9.50
2022-12-23T15:53:06.589Z,9.80
2022-12-23T15:55:37.566Z,10.20
2022-12-23T15:58:07.689Z,9.23
2022-12-23T16:00:40.767Z,11.27
2022-12-23T16:03:26.436Z,10.13
2022-12-23T16:05:55.155Z,10.87
2022-12-23T16:08:30.266Z,11.07
2022-12-23T16:11:13.964Z,10.73
2022-12-23T16:13:58.825Z,10.43
2022-12-23T16:16:39.107Z,11.17
2022-12-23T16:19:28.296Z,11.13
2022-12-23T16:21:56.792Z,12.00
2022-12-23T16:24:25.574Z,10.20
2022-12-23T16:26:56.378Z,13.03
2022-12-23T16:29:26.707Z,10.47
2022-12-23T16:32:01.639Z,12.43
2022-12-23T16:34:32.570Z,12.43
2022-12-23T16:37:01.006Z,11.43
2022-12-23T16:39:29.981Z,12.23
2022-12-23T16:41:58.719Z,13.37
2022-12-23T16:44:28.940Z,12.07
2022-12-23T16:46:57.462Z,11.37
2022-12-23T16:49:33.141Z,11.93
2022-12-23T16:52:02.825Z,12.65
2022-12-23T16:54:31.588Z,12.10
2022-12-23T16:57:00.158Z,10.07
2022-12-23T16:59:30.258Z,12.33
2022-12-23T17:02:03.453Z,12.50
2022-12-23T17:04:33.072Z,12.97
2022-12-23T17:07:01.777Z,12.23
2022-12-23T17:09:30.540Z,12.10
2022-12-23T17:11:59.303Z,11.40
2022-12-23T17:14:29.545Z,11.70
2022-12-23T17:16:58.604Z,11.60
2022-12-23T17:19:28.811Z,14.13
2022-12-23T17:22:02.087Z,10.67
2022-12-23T17:24:31.683Z,11.57
2022-12-23T17:27:00.309Z,11.73
2022-12-23T17:29:30.335Z,13.17
2022-12-23T17:31:58.783Z,12.77
2022-12-23T17:34:27.448Z,11.50
2022-12-23T17:36:55.961Z,11.73
2022-12-23T17:39:24.748Z,11.60
2022-12-23T17:41:53.670Z,12.03
2022-12-23T17:44:22.473Z,11.43
2022-12-23T17:46:52.647Z,10.67
2022-12-23T17:49:21.303Z,12.10
2022-12-23T17:51:49.985Z,12.13
2022-12-23T17:54:23.925Z,12.80
2022-12-23T17:56:52.904Z,10.87
2022-12-23T17:59:22.672Z,11.20
2022-12-23T18:01:52.738Z,12.00
2022-12-23T18:04:21.669Z,11.37
2022-12-23T18:06:50.597Z,11.43
2022-12-23T18:09:21.494Z,11.93
2022-12-23T18:11:49.849Z,11.23
2022-12-23T18:14:25.176Z,12.47
2022-12-23T18:16:55.218Z,12.23
2022-12-23T18:19:24.535Z,11.37
2022-12-23T18:21:53.876Z,12.27
2022-12-23T18:24:22.974Z,11.83
2022-12-23T18:26:51.565Z,11.93
2022-12-23T18:29:20.386Z,11.47
2022-12-23T18:31:51.848Z,12.10
2022-12-23T18:34:22.266Z,12.43
2022-12-23T18:36:52.559Z,11.40
2022-12-23T18:39:21.776Z,12.23
2022-12-23T18:41:50.460Z,13.47
2022-12-23T18:44:21.195Z,12.67
2022-12-23T18:46:50.476Z,11.40
2022-12-23T18:49:19.467Z,14.90
2022-12-23T18:51:49.654Z,12.07
2022-12-23T18:54:18.724Z,13.80
2022-12-23T18:56:48.016Z,14.60
2022-12-23T18:59:24.301Z,15.00
2022-12-23T19:01:58.619Z,13.20
2022-12-23T19:04:28.267Z,13.83
2022-12-23T19:06:58.925Z,13.13
2022-12-23T19:09:28.101Z,13.50
2022-12-23T19:11:56.902Z,14.07
2022-12-23T19:14:25.572Z,13.17
2022-12-23T19:16:54.265Z,13.30
2022-12-23T19:19:23.159Z,12.87
2022-12-23T19:21:52.957Z,13.63
2022-12-23T19:24:23.309Z,13.13
2022-12-23T19:26:51.796Z,12.57
2022-12-23T19:29:21.494Z,12.27
2022-12-23T19:31:49.887Z,11.90
2022-12-23T19:34:18.673Z,15.20
2022-12-23T19:36:47.231Z,14.30
2022-12-23T19:39:18.293Z,14.60
2022-12-23T19:41:48.071Z,14.47
2022-12-23T19:44:16.879Z,12.77
2022-12-23T19:46:45.539Z,13.33
2022-12-23T19:49:19.845Z,13.10
2022-12-23T19:51:49.921Z,11.53
2022-12-23T19:54:20.033Z,13.80
2022-12-23T19:56:51.894Z,13.23
2022-12-23T19:59:21.949Z,13.03
2022-12-23T20:01:51.043Z,13.40
2022-12-23T20:04:20.703Z,12.13
2022-12-23T20:06:49.197Z,13.43
2022-12-23T20:09:19.598Z,12.83
2022-12-23T20:11:50.785Z,12.50
2022-12-23T20:14:21.869Z,13.40
2022-12-23T20:16:51.807Z,12.53
2022-12-23T20:19:20.938Z,13.03
2022-12-23T20:21:50.008Z,13.43
2022-12-23T20:24:19.919Z,14.13
2022-12-23T20:26:48.817Z,13.77
2022-12-23T20:29:19.269Z,14.17
2022-12-23T20:31:48.192Z,12.33
2022-12-23T20:34:18.764Z,12.50
2022-12-23T20:36:47.730Z,14.07
2022-12-23T20:39:16.842Z,11.97
2022-12-23T20:41:45.412Z,11.47
2022-12-23T20:44:44.052Z,12.33
2022-12-23T20:47:04.402Z,13.77
2022-12-23T20:49:33.362Z,12.40
2022-12-23T20:52:02.096Z,12.00
2022-12-23T20:54:33.720Z,12.23
2022-12-23T20:57:04.002Z,11.50
2022-12-23T20:59:33.307Z,12.43
2022-12-23T21:02:03.682Z,13.27
2022-12-23T21:04:32.724Z,12.63
2022-12-23T21:07:01.478Z,12.63
2022-12-23T21:09:30.792Z,12.57
2022-12-23T21:11:59.482Z,14.97
2022-12-23T21:14:28.281Z,12.20
2022-12-23T21:16:56.762Z,12.57
2022-12-23T21:19:27.375Z,12.23
2022-12-23T21:21:55.865Z,13.53
2022-12-23T21:24:24.754Z,12.40
2022-12-23T21:26:56.752Z,14.93
2022-12-23T21:29:26.628Z,12.70
2022-12-23T21:31:56.200Z,14.43
2022-12-23T21:34:27.311Z,15.47
2022-12-23T21:36:56.330Z,15.60
2022-12-23T21:39:25.270Z,13.00
2022-12-23T21:41:53.739Z,14.30
2022-12-23T21:44:22.496Z,14.50
2022-12-23T21:46:52.000Z,14.70
2022-12-23T21:49:21.531Z,13.67
2022-12-23T21:51:51.527Z,13.73
2022-12-23T21:54:20.811Z,13.90
2022-12-23T21:56:49.365Z,14.57
2022-12-23T21:59:18.858Z,13.67
2022-12-23T22:01:47.758Z,13.40
2022-12-23T22:04:16.866Z,15.50
2022-12-23T22:06:46.965Z,13.90
2022-12-23T22:09:19.914Z,14.10
2022-12-23T22:11:49.451Z,12.60
2022-12-23T22:14:19.257Z,12.97
2022-12-23T22:16:50.744Z,15.27
2022-12-23T22:19:19.913Z,14.47
2022-12-23T22:21:48.402Z,14.40
2022-12-23T22:24:18.830Z,15.83
2022-12-23T22:26:47.262Z,14.97
2022-12-23T22:29:15.879Z,15.37
2022-12-23T22:31:47.001Z,13.40
2022-12-23T22:34:17.771Z,14.30
2022-12-23T22:36:46.468Z,14.30
2022-12-23T22:39:20.440Z,13.57
2022-12-23T22:41:51.797Z,15.30
2022-12-23T22:44:21.700Z,14.53
2022-12-23T22:46:50.663Z,16.27
2022-12-23T22:49:19.507Z,15.83
2022-12-23T22:51:48.156Z,16.90
2022-12-23T22:54:16.960Z,17.40
2022-12-23T22:56:46.857Z,18.50
2022-12-23T22:59:26.843Z,17.00
2022-12-23T23:01:55.877Z,17.33
2022-12-23T23:04:25.075Z,16.63
2022-12-23T23:06:53.727Z,16.13
2022-12-23T23:09:24.044Z,15.60
2022-12-23T23:11:52.957Z,16.00
2022-12-23T23:14:21.845Z,14.67
2022-12-23T23:16:51.871Z,16.43
2022-12-23T23:19:21.484Z,16.90
2022-12-23T23:21:50.074Z,14.53
2022-12-23T23:24:18.909Z,15.40
2022-12-23T23:26:47.792Z,14.90
2022-12-23T23:29:16.872Z,15.73
2022-12-23T23:31:46.018Z,15.77
2022-12-23T23:34:17.329Z,14.73
2022-12-23T23:36:45.895Z,14.47
2022-12-23T23:39:15.116Z,15.47
2022-12-23T23:41:44.094Z,12.63
2022-12-23T23:44:13.547Z,13.13
2022-12-23T23:46:42.004Z,14.10
2022-12-23T23:49:11.144Z,13.90
2022-12-23T23:51:41.716Z,13.60
2022-12-23T23:54:10.720Z,14.33
2022-12-23T23:56:39.689Z,13.37
2022-12-23T23:59:09.715Z,13.63
